Saint-Jean-Port-Joli, Canada
Current Conditions -  °F | °C
As of 1:00 AM on Saturday 29 Nov 2014 (Local Time) from CYQB Reporting Station
Clear Clear  
Wind Chill: -2°   Ceiling: Unl
Heat Index: 10°   Visibility: 15mi
Dew Point:   Wind: 8mph
Humidity: 79%   Direction: 230°SW
Pressure: 30.15"   Gusts: NA
Location:  47.2°N, 70.27°W
Report Text: CYQB 290600Z 23007KT 15SM SKC M12/M15 A3015 RMK SLP217
Loading
Personal Weather Stations






























Interactive Weather Map New forecast layout! Learn more

10-Day Weather Forecast

Advertisements
Track Severe Weather on mobile